Time;durP1;ratioP1;P1;durP2;ratioP2;P2;SDS_P1;SDS_P2;PMS_P1;PMS_P2;Temp;Humidity;BMP_temperature;BMP_pressure;BME280_temperature;BME280_humidity;BME280_pressure;Samples;Min_cycle;Max_cycle;Signal;HPM_P1;HPM_P2
2022/04/11 00:00:54;;;;;;;317.17;289.88;;;;;;;17.85;29.93;93991.31;5002054;28;20071;-83
2022/04/11 00:03:19;;;;;;;310.63;284.23;;;;;;;17.86;29.76;93984.72;5028013;28;20038;-83
2022/04/11 00:05:45;;;;;;;306.52;280.30;;;;;;;17.87;29.80;93983.50;5028404;28;20440;-83
2022/04/11 00:08:10;;;;;;;324.40;297.02;;;;;;;17.87;29.92;93983.50;5024213;28;20507;-83
2022/04/11 00:10:36;;;;;;;311.60;284.50;;;;;;;17.87;29.99;93980.03;5005374;28;20056;-83
2022/04/11 00:13:10;;;;;;;310.88;284.45;;;;;;;17.86;29.89;93971.19;5012527;28;20037;-85
2022/04/11 00:15:54;;;;;;;316.02;288.67;;;;;;;17.88;30.02;93979.59;5005003;28;20076;-85
2022/04/11 00:18:43;;;;;;;307.58;281.27;;;;;;;17.86;30.06;93973.88;4996868;28;20496;-83
2022/04/11 00:21:18;;;;;;;321.25;293.60;;;;;;;17.85;30.02;93972.38;4993935;28;20124;-82
2022/04/11 00:23:52;;;;;;;309.05;282.50;;;;;;;17.86;30.17;93973.88;4994329;28;20185;-82
2022/04/11 00:26:30;;;;;;;310.48;283.90;;;;;;;17.83;30.14;93963.22;4995188;28;20064;-83
2022/04/11 00:29:10;;;;;;;313.02;285.85;;;;;;;17.83;30.19;93966.69;4992971;28;20187;-82
2022/04/11 00:31:44;;;;;;;;;;;;;;;17.84;30.11;93965.47;4988652;28;20045;-82
2022/04/11 00:34:20;;;;;;;305.80;278.85;;;;;;;17.83;30.22;93965.91;5008789;28;19928;-83
2022/04/11 00:36:59;;;;;;;307.40;280.25;;;;;;;17.82;30.07;93965.16;4995458;28;20041;-82
2022/04/11 00:39:37;;;;;;;312.50;285.90;;;;;;;17.82;30.04;93967.13;4994115;28;20132;-83
2022/04/11 00:42:15;;;;;;;307.23;280.45;;;;;;;17.80;30.02;93962.16;4992493;28;20186;-83
2022/04/11 00:44:48;;;;;;;318.30;290.77;;;;;;;17.78;30.02;93968.03;4987874;28;20053;-83
2022/04/11 00:47:27;;;;;;;316.70;289.58;;;;;;;17.74;29.97;93958.56;4994031;28;20099;-83
2022/04/11 00:50:12;;;;;;;312.88;285.27;;;;;;;17.76;29.89;93958.88;4990705;28;20046;-82
2022/04/11 00:52:52;;;;;;;304.95;278.45;;;;;;;17.76;30.04;93956.16;4998242;28;20728;-83
2022/04/11 00:55:27;;;;;;;328.70;300.30;;;;;;;17.77;29.90;93963.06;4989750;28;20060;-83
2022/04/11 00:58:04;;;;;;;303.35;277.27;;;;;;;17.74;30.02;93953.91;4991290;28;20673;-83
2022/04/11 01:00:39;;;;;;;314.67;287.13;;;;;;;17.73;30.01;93951.66;4986969;28;20050;-83
2022/04/11 01:03:14;;;;;;;303.17;276.65;;;;;;;17.73;30.06;93957.81;5007708;28;20374;-83
2022/04/11 01:05:50;;;;;;;316.48;289.10;;;;;;;17.73;29.95;93962.47;4989274;28;20048;-83
2022/04/11 01:08:28;;;;;;;328.55;299.83;;;;;;;17.72;30.01;93963.69;5008681;28;20065;-83
2022/04/11 01:11:00;;;;;;;310.08;283.05;;;;;;;17.69;30.15;93964.59;5005430;28;20053;-82
2022/04/11 01:13:39;;;;;;;305.83;278.77;;;;;;;17.69;30.03;93959.94;5008092;28;20058;-83
2022/04/11 01:16:14;;;;;;;317.75;289.25;;;;;;;17.69;30.08;93961.88;4995121;28;20049;-83
2022/04/11 01:18:50;;;;;;;311.55;284.15;;;;;;;17.67;29.90;93964.28;4991050;28;20135;-83
2022/04/11 01:21:25;;;;;;;305.35;278.58;;;;;;;17.67;29.96;93962.34;5006734;28;20119;-83
2022/04/11 01:24:02;;;;;;;300.63;274.23;;;;;;;17.66;29.86;93970.91;4990860;28;20049;-83
2022/04/11 01:26:39;;;;;;;320.02;292.08;;;;;;;17.67;29.96;93958.88;4995133;28;20041;-83
2022/04/11 01:29:15;;;;;;;319.20;291.60;;;;;;;17.65;29.91;93956.63;4995017;28;20079;-83
2022/04/11 01:31:50;;;;;;;307.48;280.88;;;;;;;17.67;30.09;93956.91;4993524;28;20121;-83
2022/04/11 01:34:26;;;;;;;313.70;286.85;;;;;;;17.66;29.90;93960.84;4994596;28;20054;-83
2022/04/11 01:37:00;;;;;;;312.45;285.33;;;;;;;17.68;29.90;93957.66;4994378;28;20115;-83
2022/04/11 01:39:39;;;;;;;312.60;285.27;;;;;;;17.66;29.72;93962.78;5005419;28;20053;-83
2022/04/11 01:42:13;;;;;;;318.45;290.65;;;;;;;17.67;29.89;93959.63;4998491;28;20129;-83
2022/04/11 01:44:50;;;;;;;312.10;284.92;;;;;;;17.64;29.82;93951.63;4986914;28;20045;-82
2022/04/11 01:47:24;;;;;;;320.70;293.10;;;;;;;17.66;29.85;93955.41;5002647;28;20061;-83
2022/04/11 01:50:01;;;;;;;329.42;300.63;;;;;;;17.68;29.65;93957.66;4991579;28;20073;-83
2022/04/11 01:52:40;;;;;;;319.98;292.17;;;;;;;17.67;29.92;93956.91;4987306;28;20054;-83
2022/04/11 01:55:20;;;;;;;359.42;328.65;;;;;;;17.67;29.99;93951.50;4984385;28;20851;-83
2022/04/11 01:57:56;;;;;;;315.38;288.13;;;;;;;17.67;29.83;93951.50;4986081;28;20073;-83
2022/04/11 02:00:33;;;;;;;311.13;283.95;;;;;;;17.66;29.92;93944.59;4985917;28;20072;-83
2022/04/11 02:03:10;;;;;;;314.40;287.02;;;;;;;17.67;29.96;93939.94;4990749;28;20041;-83
2022/04/11 02:05:46;;;;;;;304.20;277.63;;;;;;;17.64;29.91;93941.56;4995707;28;20076;-83
2022/04/11 02:08:22;;;;;;;312.25;284.83;;;;;;;17.65;29.94;93935.00;4984924;28;20054;-83
2022/04/11 02:11:01;;;;;;;312.55;285.33;;;;;;;17.67;29.91;93937.25;4982635;28;20436;-83
2022/04/11 02:13:35;;;;;;;316.55;288.73;;;;;;;17.66;29.96;93933.78;4985301;28;20053;-83
2022/04/11 02:16:13;;;;;;;316.00;288.67;;;;;;;17.65;29.81;93929.59;4985603;28;20587;-83
2022/04/11 02:18:47;;;;;;;307.67;280.85;;;;;;;17.66;29.94;93935.75;4994085;28;20106;-83
2022/04/11 02:21:25;;;;;;;319.08;291.63;;;;;;;17.66;30.19;93935.75;4992803;28;20088;-82
2022/04/11 02:24:01;;;;;;;305.05;278.40;;;;;;;17.64;29.73;93925.34;4990063;28;20438;-83
2022/04/11 02:26:38;;;;;;;312.67;285.38;;;;;;;17.66;29.96;93924.91;4987074;28;20456;-83
2022/04/11 02:29:12;;;;;;;311.80;284.85;;;;;;;17.65;29.84;93926.88;4984992;28;20567;-83
2022/04/11 02:31:51;;;;;;;310.55;283.65;;;;;;;17.65;29.88;93917.97;4987570;28;20059;-83
2022/04/11 02:34:32;;;;;;;309.05;281.63;;;;;;;17.67;29.90;93907.50;4990687;28;20132;-83
2022/04/11 02:37:11;;;;;;;310.95;283.60;;;;;;;17.67;29.87;93910.19;4990705;28;20077;-83
2022/04/11 02:39:46;;;;;;;304.80;277.83;;;;;;;17.63;29.88;93910.31;4992136;28;20056;-83
2022/04/11 02:42:26;;;;;;;307.60;280.80;;;;;;;17.64;29.78;93906.41;4988504;28;20115;-83
2022/04/11 02:45:01;;;;;;;308.77;281.63;;;;;;;17.65;29.77;93907.94;4990825;28;20069;-83
2022/04/11 02:47:40;;;;;;;312.25;284.92;;;;;;;17.65;29.80;93901.75;4986453;28;20061;-83
2022/04/11 02:50:18;;;;;;;298.25;271.50;;;;;;;17.63;29.69;93891.38;5000907;28;20041;-83
2022/04/11 02:52:50;;;;;;;322.50;293.33;;;;;;;17.59;29.76;93892.75;5033583;23;20075;-74
2022/04/11 02:55:16;;;;;;;333.27;302.73;;;;;;;17.61;29.70;93896.50;5049623;28;20071;-74
2022/04/11 02:57:41;;;;;;;313.00;285.55;;;;;;;17.62;29.81;93891.84;5058746;28;20041;-74
2022/04/11 03:00:11;;;;;;;323.73;295.35;;;;;;;17.62;29.73;93889.88;5056913;28;20056;-74
2022/04/11 03:02:36;;;;;;;315.15;287.88;;;;;;;17.63;29.75;93890.63;5052864;28;20064;-74
2022/04/11 03:05:05;;;;;;;318.52;290.55;;;;;;;17.61;29.75;93885.69;5054470;28;20497;-73
2022/04/11 03:07:31;;;;;;;308.75;281.25;;;;;;;17.62;29.80;93875.63;5037104;28;20059;-74
2022/04/11 03:09:57;;;;;;;330.02;301.40;;;;;;;17.61;29.79;93880.28;5053828;28;20656;-73
2022/04/11 03:12:25;;;;;;;321.20;292.88;;;;;;;17.60;29.76;93881.47;5056935;28;20044;-73
2022/04/11 03:14:51;;;;;;;316.02;288.85;;;;;;;17.59;29.96;93877.28;5050021;28;20480;-73
2022/04/11 03:17:17;;;;;;;320.05;291.83;;;;;;;17.58;29.64;93877.72;5045071;28;20041;-73
2022/04/11 03:19:44;;;;;;;309.92;282.95;;;;;;;17.59;29.75;93884.63;5057449;28;20138;-73
2022/04/11 03:22:11;;;;;;;322.05;294.10;;;;;;;17.58;29.76;93883.13;5055320;28;20052;-74
2022/04/11 03:24:36;;;;;;;317.73;289.00;;;;;;;17.59;29.67;93885.38;5061099;28;20045;-73
2022/04/11 03:27:02;;;;;;;312.13;284.65;;;;;;;17.58;29.76;93880.44;5060298;28;20056;-73
2022/04/11 03:29:28;;;;;;;321.02;293.10;;;;;;;17.58;29.78;93872.31;5056460;28;20102;-74
2022/04/11 03:31:53;;;;;;;345.25;314.75;;;;;;;17.58;29.61;93870.38;5056699;28;20052;-73
2022/04/11 03:34:19;;;;;;;324.77;295.67;;;;;;;17.57;29.67;93868.13;5045239;28;20041;-73
2022/04/11 03:36:45;;;;;;;323.23;295.10;;;;;;;17.58;29.90;93866.91;5055462;28;20583;-73
2022/04/11 03:39:10;;;;;;;312.25;284.60;;;;;;;17.57;29.71;93868.13;5053387;28;20592;-73
2022/04/11 03:41:36;;;;;;;315.30;287.40;;;;;;;17.56;29.74;93866.63;5046082;28;20044;-73
2022/04/11 03:44:03;;;;;;;316.02;288.13;;;;;;;17.56;29.80;93864.66;5052041;28;20032;-73
2022/04/11 03:46:28;;;;;;;313.65;286.13;;;;;;;17.55;29.71;93868.56;5053590;28;20602;-73
2022/04/11 03:48:54;;;;;;;327.42;298.23;;;;;;;17.55;29.75;93857.03;5054061;28;20115;-73
2022/04/11 03:51:20;;;;;;;318.15;289.92;;;;;;;17.57;29.76;93865.41;5058188;28;20045;-73
2022/04/11 03:53:47;;;;;;;329.20;300.67;;;;;;;17.58;29.45;93861.50;5058276;28;20568;-72
2022/04/11 03:56:14;;;;;;;328.10;299.40;;;;;;;17.58;29.61;93859.56;5055381;28;20117;-73
2022/04/11 03:58:40;;;;;;;322.60;294.67;;;;;;;17.60;29.69;93859.84;5059247;28;20037;-72
2022/04/11 04:01:06;;;;;;;314.27;286.50;;;;;;;17.62;29.80;93854.72;5057155;28;20049;-73
2022/04/11 04:03:32;;;;;;;317.08;288.90;;;;;;;17.64;29.56;93843.47;5055279;28;20122;-73
2022/04/11 04:05:58;;;;;;;325.42;297.27;;;;;;;17.65;29.80;93848.44;5057785;28;20105;-73
2022/04/11 04:08:23;;;;;;;320.77;292.73;;;;;;;17.68;29.90;93849.50;5056769;28;20479;-73
2022/04/11 04:10:49;;;;;;;320.42;292.63;;;;;;;17.69;29.72;93846.34;5046510;28;20033;-73
2022/04/11 04:13:16;;;;;;;324.15;296.38;;;;;;;17.72;29.75;93845.44;5050904;28;20702;-73
2022/04/11 04:15:42;;;;;;;327.42;298.90;;;;;;;17.74;29.80;93844.97;5047963;28;20107;-73
2022/04/11 04:18:09;;;;;;;320.17;292.42;;;;;;;17.75;29.89;93835.66;5054719;28;20091;-72
2022/04/11 04:20:35;;;;;;;327.13;299.55;;;;;;;17.78;29.77;93832.03;5059241;28;20094;-73
2022/04/11 04:23:01;;;;;;;330.88;302.88;;;;;;;17.82;29.65;93829.16;5049819;28;20045;-71
2022/04/11 04:25:26;;;;;;;338.88;309.55;;;;;;;17.84;29.67;93824.81;5056677;28;20036;-71
2022/04/11 04:27:52;;;;;;;337.77;309.85;;;;;;;17.86;29.58;93819.69;5051787;28;20119;-76
2022/04/11 04:30:18;;;;;;;355.60;325.27;;;;;;;17.88;29.66;93814.56;5050543;28;20044;-73
2022/04/11 04:32:43;;;;;;;336.02;308.55;;;;;;;17.88;29.85;93822.69;5055958;28;20036;-72
2022/04/11 04:35:09;;;;;;;355.30;325.65;;;;;;;17.90;29.79;93811.41;5056269;28;20028;-73
2022/04/11 04:37:35;;;;;;;343.27;315.00;;;;;;;17.92;29.68;93817.09;5050946;28;20044;-71
2022/04/11 04:40:01;;;;;;;338.65;310.77;;;;;;;17.92;29.61;93811.69;5053416;28;20108;-72
2022/04/11 04:42:26;;;;;;;334.48;306.85;;;;;;;17.91;29.61;93815.59;5055215;28;20041;-72
2022/04/11 04:44:53;;;;;;;339.25;311.40;;;;;;;17.94;29.63;93809.28;5051295;28;21217;-72
2022/04/11 04:47:18;;;;;;;347.08;317.60;;;;;;;17.94;29.61;93809.28;5044291;28;20033;-72
2022/04/11 04:49:45;;;;;;;347.63;319.08;;;;;;;17.94;29.54;93807.31;5054572;28;20063;-72
2022/04/11 04:52:11;;;;;;;336.70;308.27;;;;;;;17.98;29.53;93807.91;5050068;28;20040;-72
2022/04/11 04:54:37;;;;;;;341.00;313.08;;;;;;;17.99;29.41;93805.97;5062653;28;20037;-71
2022/04/11 04:57:04;;;;;;;334.17;306.25;;;;;;;18.00;29.36;93808.19;5050331;28;20064;-72
2022/04/11 04:59:29;;;;;;;330.02;302.58;;;;;;;18.01;29.39;93808.94;5050799;28;20076;-72
2022/04/11 05:01:55;;;;;;;342.85;313.83;;;;;;;18.02;29.48;93797.66;5049918;28;20075;-71
2022/04/11 05:04:21;;;;;;;342.17;314.40;;;;;;;18.03;29.57;93795.72;5054764;28;20040;-72
2022/04/11 05:06:47;;;;;;;350.90;323.33;;;;;;;18.04;29.20;93799.91;5049006;28;20082;-72
2022/04/11 05:09:12;;;;;;;336.58;308.83;;;;;;;18.03;29.45;93804.59;5058554;28;20048;-72
2022/04/11 05:11:52;;;;;;;347.42;319.23;;;;;;;18.04;29.27;93797.97;5054640;28;20045;-72
2022/04/11 05:14:25;;;;;;;339.13;310.80;;;;;;;18.05;29.37;93788.63;5052877;28;20562;-72
2022/04/11 05:17:06;;;;;;;330.02;302.02;;;;;;;18.05;29.50;93796.00;5006803;28;20040;-72
2022/04/11 05:20:46;;;;;;;;;;;;;;;;;;;;;
2022/04/11 05:23:31;;;;;;;337.48;308.60;;;;;;;18.11;29.24;93788.75;5045529;28;20047;-73
2022/04/11 05:26:00;;;;;;;330.55;302.83;;;;;;;18.11;29.22;93788.75;5053555;28;20041;-72
2022/04/11 05:28:25;;;;;;;329.10;301.23;;;;;;;18.13;29.28;93785.59;5049748;28;20055;-72
2022/04/11 05:30:50;;;;;;;325.95;298.65;;;;;;;18.14;29.16;93789.81;5055426;28;20037;-72
2022/04/11 05:33:16;;;;;;;336.58;309.08;;;;;;;18.14;29.24;93789.81;5055551;28;20228;-73
2022/04/11 05:35:42;;;;;;;337.48;310.05;;;;;;;18.15;29.05;93792.06;5048576;28;20098;-73
2022/04/11 05:38:07;;;;;;;329.98;302.92;;;;;;;18.13;29.21;93785.59;5048028;28;20052;-72
2022/04/11 05:40:33;;;;;;;339.95;311.13;;;;;;;18.14;29.24;93781.69;5059801;28;20467;-73
2022/04/11 05:42:58;;;;;;;320.38;294.38;;;;;;;18.14;29.17;93787.09;5048114;28;20052;-73
2022/04/11 05:45:24;;;;;;;333.83;305.90;;;;;;;18.14;29.37;93778.97;5054191;28;20041;-72
2022/04/11 05:47:49;;;;;;;323.42;296.67;;;;;;;18.14;29.36;93781.69;5048641;28;20040;-72
2022/04/11 05:50:15;;;;;;;333.30;305.73;;;;;;;18.11;29.28;93786.06;5053877;28;20455;-72
2022/04/11 05:52:40;;;;;;;329.38;302.45;;;;;;;18.14;29.27;93793.25;5049963;28;20040;-73
2022/04/11 05:55:07;;;;;;;347.08;317.98;;;;;;;18.14;29.32;93789.81;5047734;28;20076;-72
2022/04/11 05:57:32;;;;;;;336.15;307.33;;;;;;;18.13;29.07;93780.94;5042042;28;20041;-73
2022/04/11 05:59:58;;;;;;;339.52;311.25;;;;;;;18.12;28.88;93795.66;5050021;28;20127;-72
2022/04/11 06:02:23;;;;;;;331.50;304.08;;;;;;;18.13;29.17;93791.00;5057504;28;20109;-72
2022/04/11 06:04:49;;;;;;;324.83;297.90;;;;;;;18.13;29.21;93794.47;5066951;28;20136;-72
2022/04/11 06:07:16;;;;;;;332.15;305.23;;;;;;;18.12;28.98;93792.22;5046812;28;20125;-72
2022/04/11 06:09:42;;;;;;;337.77;310.10;;;;;;;18.18;29.13;93780.31;5054390;28;20127;-72
2022/04/11 06:12:10;;;;;;;321.30;294.77;;;;;;;18.20;29.38;93793.38;5054027;28;20037;-73
2022/04/11 06:14:36;;;;;;;322.83;296.00;;;;;;;18.16;29.21;93793.53;5060838;28;20091;-72
2022/04/11 06:17:01;;;;;;;329.23;301.98;;;;;;;18.15;29.25;93789.34;5056895;28;20048;-73
2022/04/11 06:19:27;;;;;;;330.10;302.55;;;;;;;18.16;29.24;93792.78;5061449;28;20599;-73
2022/04/11 06:21:52;;;;;;;320.63;293.33;;;;;;;18.15;29.37;93794.75;5051162;28;20033;-72
2022/04/11 06:24:18;;;;;;;323.92;296.40;;;;;;;18.14;29.40;93801.38;5056479;28;20032;-71
2022/04/11 06:26:44;;;;;;;328.00;300.58;;;;;;;18.17;29.33;93794.28;5049934;28;20044;-73
2022/04/11 06:29:10;;;;;;;332.38;304.58;;;;;;;18.13;29.38;93789.06;5054415;28;20097;-69
2022/04/11 06:31:36;;;;;;;329.67;302.45;;;;;;;18.17;29.21;93786.19;5055461;28;20119;-72
2022/04/11 06:34:03;;;;;;;328.45;301.13;;;;;;;18.20;29.31;93796.81;5058866;28;20047;-71
2022/04/11 06:36:28;;;;;;;326.63;299.42;;;;;;;18.21;29.27;93789.44;5052575;28;20052;-73
2022/04/11 06:38:54;;;;;;;327.77;300.85;;;;;;;18.22;29.22;93786.28;5054167;28;20116;-73
2022/04/11 06:41:19;;;;;;;330.02;302.10;;;;;;;18.24;29.33;93793.94;5052511;28;20037;-73
2022/04/11 06:43:45;;;;;;;338.00;310.10;;;;;;;18.23;29.06;93789.72;5062229;28;20044;-73
2022/04/11 06:46:10;;;;;;;334.35;306.25;;;;;;;18.25;29.26;93784.59;5049542;28;20071;-73
2022/04/11 06:48:36;;;;;;;329.33;302.02;;;;;;;18.21;29.12;93790.19;5051935;28;20032;-72
2022/04/11 06:51:02;;;;;;;321.73;295.17;;;;;;;18.19;28.97;93781.06;5048243;28;20048;-72
2022/04/11 06:53:27;;;;;;;333.45;306.55;;;;;;;18.18;29.17;93787.69;5063859;28;20765;-73
2022/04/11 06:55:53;;;;;;;332.38;305.45;;;;;;;18.18;28.90;93793.84;5050458;28;20176;-72
2022/04/11 06:58:18;;;;;;;333.92;306.65;;;;;;;18.15;29.06;93785.88;5060699;28;20036;-69
2022/04/11 07:00:45;;;;;;;336.58;308.33;;;;;;;18.13;28.93;93791.75;5056040;28;20056;-69
2022/04/11 07:03:10;;;;;;;330.30;303.20;;;;;;;18.10;28.73;93790.72;5046030;28;20104;-69
2022/04/11 07:05:39;;;;;;;348.73;319.10;;;;;;;18.06;28.69;93790.13;5049799;28;20040;-69
2022/04/11 07:08:05;;;;;;;337.85;309.73;;;;;;;18.07;28.66;93788.94;5060647;28;20915;-69
2022/04/11 07:10:31;;;;;;;329.77;302.67;;;;;;;18.09;28.76;93788.47;5051509;28;20105;-69
2022/04/11 07:12:58;;;;;;;334.88;307.00;;;;;;;18.09;28.72;93791.19;5054711;28;20059;-68
2022/04/11 07:15:24;;;;;;;332.15;303.75;;;;;;;18.12;28.56;93797.63;5057793;28;20101;-68
2022/04/11 07:17:49;;;;;;;323.90;297.48;;;;;;;18.13;28.90;93796.41;5054524;28;20053;-69
2022/04/11 07:20:15;;;;;;;326.75;299.92;;;;;;;18.13;28.94;93794.47;5043602;28;20132;-69
2022/04/11 07:22:42;;;;;;;325.35;298.65;;;;;;;18.13;28.92;93791.75;5055178;28;20635;-68
2022/04/11 07:25:09;;;;;;;336.38;308.98;;;;;;;18.12;28.84;93797.63;5057337;28;20037;-71
2022/04/11 07:27:35;;;;;;;329.60;301.90;;;;;;;18.12;28.84;93792.22;5050202;28;20039;-72
2022/04/11 07:30:00;;;;;;;329.75;301.58;;;;;;;18.12;28.79;93794.94;5051747;28;20120;-69
2022/04/11 07:32:26;;;;;;;336.83;309.00;;;;;;;18.11;28.91;93796.88;5047191;28;20108;-69
2022/04/11 07:34:51;;;;;;;329.05;301.30;;;;;;;18.17;28.65;93791.59;5061619;28;20105;-69
2022/04/11 07:37:17;;;;;;;330.00;302.27;;;;;;;18.15;28.86;93789.34;5045562;28;20166;-71
2022/04/11 07:39:43;;;;;;;340.70;311.63;;;;;;;18.15;28.98;93792.06;5047618;28;20041;-72
2022/04/11 07:42:08;;;;;;;321.58;294.92;;;;;;;18.16;28.96;93779.25;5052844;28;20067;-71
2022/04/11 07:44:34;;;;;;;330.92;303.38;;;;;;;18.18;28.94;93793.84;5042396;28;20037;-71
2022/04/11 07:47:02;;;;;;;329.67;301.80;;;;;;;18.18;29.10;93783.00;5042891;28;20121;-71
2022/04/11 07:49:28;;;;;;;325.33;298.27;;;;;;;18.20;28.89;93787.97;5050313;28;20188;-70
2022/04/11 07:51:53;;;;;;;334.20;306.67;;;;;;;18.21;28.97;93786.72;5051847;28;20033;-70
2022/04/11 07:54:19;;;;;;;325.52;298.80;;;;;;;18.20;28.95;93785.25;5047018;28;20045;-72
2022/04/11 07:56:44;;;;;;;329.20;302.02;;;;;;;18.19;28.90;93789.16;5050197;28;20140;-70
2022/04/11 07:59:10;;;;;;;325.55;298.55;;;;;;;18.22;29.00;93785.53;5048790;28;20045;-68
2022/04/11 08:01:35;;;;;;;342.80;314.35;;;;;;;18.19;29.01;93783.75;5053512;28;20054;-70
2022/04/11 08:04:01;;;;;;;335.45;308.15;;;;;;;18.20;29.01;93785.97;5044210;28;20044;-68
2022/04/11 08:06:26;;;;;;;328.73;301.92;;;;;;;18.21;28.91;93782.06;5056255;28;20048;-71
2022/04/11 08:08:52;;;;;;;335.55;307.80;;;;;;;18.25;28.91;93787.31;5054890;28;20049;-68
2022/04/11 08:11:18;;;;;;;337.60;309.75;;;;;;;18.24;28.93;93781.16;5058346;28;20373;-68
2022/04/11 08:13:45;;;;;;;335.17;307.58;;;;;;;18.25;28.96;93785.34;5061917;28;20533;-68
2022/04/11 08:16:11;;;;;;;335.38;308.13;;;;;;;18.25;28.73;93777.22;5055739;28;20056;-68
2022/04/11 08:18:36;;;;;;;339.40;311.92;;;;;;;18.27;29.11;93779.47;5065771;28;20453;-66
2022/04/11 08:21:03;;;;;;;330.95;304.23;;;;;;;18.26;29.10;93777.97;5062368;28;20048;-66
2022/04/11 08:23:29;;;;;;;342.30;315.10;;;;;;;18.28;28.98;93780.97;5054599;28;20064;-66
2022/04/11 08:25:54;;;;;;;333.80;306.85;;;;;;;18.27;28.87;93777.50;5058364;28;20693;-66
2022/04/11 08:28:20;;;;;;;338.80;311.40;;;;;;;18.28;28.96;93773.59;5066853;28;20051;-68
2022/04/11 08:30:46;;;;;;;343.02;315.58;;;;;;;18.29;28.93;93777.06;5062315;28;20158;-68
2022/04/11 08:33:12;;;;;;;341.30;313.70;;;;;;;18.30;28.88;93771.19;5050910;28;20126;-68
2022/04/11 08:35:38;;;;;;;374.10;344.42;;;;;;;18.31;28.85;93771.94;5056443;28;20041;-68
2022/04/11 08:38:05;;;;;;;334.88;307.17;;;;;;;18.25;28.69;93776.47;5055398;28;20068;-67
2022/04/11 08:40:31;;;;;;;334.05;306.25;;;;;;;18.23;28.86;93773.47;5054927;28;20475;-67
2022/04/11 08:42:59;;;;;;;328.85;302.15;;;;;;;18.23;28.95;93773.47;5058418;28;20055;-68
2022/04/11 08:45:27;;;;;;;333.00;305.80;;;;;;;18.24;28.83;93773.03;5044928;28;20145;-67
2022/04/11 08:47:59;;;;;;;325.52;298.42;;;;;;;18.23;28.74;93771.53;5051613;28;20109;-68
2022/04/11 08:50:26;;;;;;;328.33;301.63;;;;;;;18.25;28.95;93765.66;5061894;28;20462;-68
2022/04/11 08:52:55;;;;;;;339.45;311.35;;;;;;;18.26;28.69;93770.59;5054042;28;20053;-69
2022/04/11 08:55:24;;;;;;;346.20;317.30;;;;;;;18.23;28.90;93762.66;5045586;28;20073;-70
2022/04/11 09:00:20;;;;;;;323.02;296.05;;;;;;;18.23;28.60;93768.81;5035992;28;20053;-69
2022/04/11 09:02:46;;;;;;;336.85;308.83;;;;;;;18.27;28.87;93760.53;5018295;28;20489;-69
2022/04/11 09:05:18;;;;;;;329.05;302.00;;;;;;;18.28;28.67;93760.06;5006622;28;20107;-70
2022/04/11 09:07:53;;;;;;;332.55;305.30;;;;;;;18.27;28.85;93753.16;5031307;28;20076;-70
2022/04/11 09:10:25;;;;;;;331.83;304.38;;;;;;;18.27;28.86;93757.81;5032773;28;20068;-70
2022/04/11 09:12:59;;;;;;;341.92;313.52;;;;;;;18.21;28.67;93746.88;5035484;28;20040;-70
2022/04/11 09:15:26;;;;;;;339.13;310.55;;;;;;;18.13;28.53;93753.13;5040608;28;20056;-70
2022/04/11 09:17:54;;;;;;;335.75;308.15;;;;;;;18.13;28.71;93748.47;5038609;28;20045;-70
2022/04/11 09:20:27;;;;;;;331.48;303.60;;;;;;;18.15;28.87;93753.41;5034516;28;20060;-70
2022/04/11 09:22:53;;;;;;;334.83;307.55;;;;;;;18.14;28.64;93749.19;5044501;28;20068;-70
2022/04/11 09:25:21;;;;;;;329.63;302.73;;;;;;;18.11;28.59;93748.16;5042435;28;20073;-69
2022/04/11 09:27:49;;;;;;;326.50;299.70;;;;;;;18.16;28.65;93752.94;5054338;28;20116;-69
2022/04/11 09:30:27;;;;;;;326.80;299.83;;;;;;;18.18;28.73;93753.25;5039539;28;20409;-69
2022/04/11 09:32:55;;;;;;;323.27;296.23;;;;;;;18.17;28.58;93759.84;5036781;28;20139;-68
2022/04/11 09:35:23;;;;;;;323.40;295.95;;;;;;;18.18;28.65;93755.19;5035967;28;20056;-69
2022/04/11 09:38:14;;;;;;;329.42;301.85;;;;;;;18.13;28.71;93758.53;5032503;28;20128;-69
2022/04/11 09:41:01;;;;;;;324.92;297.17;;;;;;;18.13;28.61;93755.81;5049073;28;20473;-69
2022/04/11 09:43:32;;;;;;;323.95;296.35;;;;;;;18.08;28.59;93739.00;5032322;28;20056;-69
2022/04/11 09:46:02;;;;;;;325.02;297.20;;;;;;;18.12;28.90;93746.97;5037124;28;20051;-69
2022/04/11 09:48:32;;;;;;;324.88;297.40;;;;;;;18.08;28.73;93744.41;5017917;28;20044;-69
2022/04/11 09:51:01;;;;;;;325.23;298.25;;;;;;;18.07;28.73;93737.50;5029741;28;20064;-69
2022/04/11 09:53:32;;;;;;;331.20;303.83;;;;;;;18.11;28.74;93742.75;5034259;28;20689;-69
2022/04/11 09:56:02;;;;;;;347.90;320.00;;;;;;;18.07;28.58;93737.50;5040486;28;20041;-70
2022/04/11 09:58:28;;;;;;;323.98;297.33;;;;;;;18.05;28.77;93739.94;5026717;28;20421;-70
2022/04/11 10:00:54;;;;;;;334.98;306.70;;;;;;;18.06;28.83;93736.00;5036059;28;20053;-70
2022/04/11 10:03:25;;;;;;;338.60;310.05;;;;;;;18.13;28.77;93734.91;5022979;28;20194;-70
2022/04/11 10:05:51;;;;;;;327.48;300.35;;;;;;;18.08;28.66;93739.00;5042592;28;20052;-70
2022/04/11 10:08:18;;;;;;;330.50;302.75;;;;;;;18.12;28.84;93722.59;5032567;28;20130;-70
2022/04/11 10:10:43;;;;;;;328.15;300.40;;;;;;;18.10;28.81;93725.78;5032974;28;20470;-70
2022/04/11 10:13:14;;;;;;;328.00;300.52;;;;;;;18.12;28.66;93735.38;5039043;28;20049;-69
2022/04/11 10:15:41;;;;;;;346.73;317.23;;;;;;;18.03;28.68;93726.09;5038936;28;20044;-70
2022/04/11 10:18:08;;;;;;;316.05;289.13;;;;;;;18.03;28.81;93720.69;5043262;28;20506;-70
2022/04/11 10:20:36;;;;;;;321.05;293.98;;;;;;;18.04;28.74;93724.16;5035001;28;20072;-70
2022/04/11 10:23:37;;;;;;;323.17;295.90;;;;;;;18.05;28.71;93725.66;5030712;28;20402;-70
2022/04/11 10:26:14;;;;;;;319.77;292.37;;;;;;;18.04;28.88;93724.91;5034223;28;20122;-70
2022/04/11 10:28:45;;;;;;;323.52;296.40;;;;;;;18.07;28.82;93718.56;5036083;28;20049;-70
2022/04/11 10:31:13;;;;;;;323.25;295.80;;;;;;;18.01;28.77;93714.25;5041563;28;20037;-70
2022/04/11 10:33:44;;;;;;;339.77;311.80;;;;;;;18.01;29.13;93712.28;5042880;28;20056;-70
2022/04/11 10:36:34;;;;;;;337.17;309.45;;;;;;;18.05;28.86;93707.47;5023892;28;20136;-70
2022/04/11 10:39:14;;;;;;;329.80;302.27;;;;;;;18.02;28.75;93705.66;5040974;28;20075;-70
2022/04/11 10:41:55;;;;;;;325.38;298.15;;;;;;;18.04;29.03;93705.97;5032846;28;20727;-70
2022/04/11 10:44:38;;;;;;;326.00;297.85;;;;;;;18.02;29.02;93705.66;5028959;28;20090;-70
2022/04/11 10:47:12;;;;;;;322.38;295.05;;;;;;;18.03;28.77;93707.16;5028913;28;20618;-69
2022/04/11 10:49:44;;;;;;;329.48;302.05;;;;;;;17.99;28.85;93695.03;5041250;28;20089;-70
2022/04/11 10:52:31;;;;;;;321.02;293.83;;;;;;;17.99;29.03;93693.06;5041969;28;20052;-70
2022/04/11 10:55:20;;;;;;;335.75;307.50;;;;;;;18.02;29.11;93694.09;5003239;28;20049;-70
2022/04/11 10:57:46;;;;;;;319.52;292.48;;;;;;;18.02;28.97;93692.16;5039862;28;20703;-70
2022/04/11 11:00:22;;;;;;;334.80;307.08;;;;;;;17.98;28.76;93696.22;5043195;28;20053;-70
2022/04/11 11:02:56;;;;;;;338.55;310.10;;;;;;;17.96;28.90;93693.25;5036679;28;20545;-70
2022/04/11 11:05:35;;;;;;;339.00;310.23;;;;;;;17.93;28.87;93686.78;5042970;28;20049;-69
2022/04/11 11:08:09;;;;;;;331.15;303.60;;;;;;;17.98;29.01;93682.69;5036416;28;20052;-70
2022/04/11 11:10:58;;;;;;;329.95;302.30;;;;;;;17.91;28.72;93683.78;5029249;28;20075;-69
2022/04/11 11:13:36;;;;;;;326.25;298.77;;;;;;;17.90;29.01;93682.28;5036842;28;20112;-69
2022/04/11 11:16:07;;;;;;;353.60;325.25;;;;;;;17.96;28.77;93677.00;5040283;28;20049;-69
2022/04/11 11:18:51;;;;;;;330.45;302.63;;;;;;;17.98;28.98;93672.63;5040605;28;20114;-68
2022/04/11 11:21:21;;;;;;;325.27;297.25;;;;;;;17.99;29.02;93666.00;5030997;28;20147;-69